sensor_id;sensor_type;location;lat;lon;timestamp;temperature;humidity
18581;DHT22;9420;50.876;7.012;2024-03-02T00:01:29;7.83;79.89
18581;DHT22;9420;50.876;7.012;2024-03-02T00:03:55;7.90;79.49
18581;DHT22;9420;50.876;7.012;2024-03-02T00:06:22;8.00;79.04
18581;DHT22;9420;50.876;7.012;2024-03-02T00:08:49;8.06;78.85
18581;DHT22;9420;50.876;7.012;2024-03-02T00:11:16;8.07;78.39
18581;DHT22;9420;50.876;7.012;2024-03-02T00:13:45;8.00;79.22
18581;DHT22;9420;50.876;7.012;2024-03-02T00:16:12;8.02;79.26
18581;DHT22;9420;50.876;7.012;2024-03-02T00:18:40;8.00;79.11
18581;DHT22;9420;50.876;7.012;2024-03-02T00:21:08;8.09;78.78
18581;DHT22;9420;50.876;7.012;2024-03-02T00:23:36;8.24;77.90
18581;DHT22;9420;50.876;7.012;2024-03-02T00:26:04;8.24;78.18
18581;DHT22;9420;50.876;7.012;2024-03-02T00:28:32;8.12;78.99
18581;DHT22;9420;50.876;7.012;2024-03-02T00:31:02;8.31;78.14
18581;DHT22;9420;50.876;7.012;2024-03-02T00:33:34;8.20;78.26
18581;DHT22;9420;50.876;7.012;2024-03-02T00:36:03;8.14;78.69
18581;DHT22;9420;50.876;7.012;2024-03-02T00:38:31;8.21;78.14
18581;DHT22;9420;50.876;7.012;2024-03-02T00:40:59;8.13;78.74
18581;DHT22;9420;50.876;7.012;2024-03-02T00:43:47;8.19;78.38
18581;DHT22;9420;50.876;7.012;2024-03-02T00:46:19;8.14;78.48
18581;DHT22;9420;50.876;7.012;2024-03-02T00:48:53;8.07;78.80
18581;DHT22;9420;50.876;7.012;2024-03-02T00:51:22;7.93;79.75
18581;DHT22;9420;50.876;7.012;2024-03-02T00:53:50;8.04;79.03
18581;DHT22;9420;50.876;7.012;2024-03-02T00:56:17;7.96;79.26
18581;DHT22;9420;50.876;7.012;2024-03-02T00:58:44;7.89;79.30
18581;DHT22;9420;50.876;7.012;2024-03-02T01:01:11;7.79;79.61
18581;DHT22;9420;50.876;7.012;2024-03-02T01:03:37;7.66;80.04
18581;DHT22;9420;50.876;7.012;2024-03-02T01:06:06;7.58;79.97
18581;DHT22;9420;50.876;7.012;2024-03-02T01:08:35;7.61;79.93
18581;DHT22;9420;50.876;7.012;2024-03-02T01:11:02;7.45;80.42
18581;DHT22;9420;50.876;7.012;2024-03-02T01:13:29;7.48;80.17
18581;DHT22;9420;50.876;7.012;2024-03-02T01:15:56;7.47;80.30
18581;DHT22;9420;50.876;7.012;2024-03-02T01:18:23;7.44;80.23
18581;DHT22;9420;50.876;7.012;2024-03-02T01:20:50;7.35;80.68
18581;DHT22;9420;50.876;7.012;2024-03-02T01:23:18;7.31;80.60
18581;DHT22;9420;50.876;7.012;2024-03-02T01:25:47;7.25;80.72
18581;DHT22;9420;50.876;7.012;2024-03-02T01:28:14;7.23;80.69
18581;DHT22;9420;50.876;7.012;2024-03-02T01:30:41;7.11;81.22
18581;DHT22;9420;50.876;7.012;2024-03-02T01:33:08;7.14;81.07
18581;DHT22;9420;50.876;7.012;2024-03-02T01:35:35;7.06;81.38
18581;DHT22;9420;50.876;7.012;2024-03-02T01:38:02;6.99;81.59
18581;DHT22;9420;50.876;7.012;2024-03-02T01:40:31;6.94;81.71
18581;DHT22;9420;50.876;7.012;2024-03-02T01:42:59;6.93;81.73
18581;DHT22;9420;50.876;7.012;2024-03-02T01:45:27;6.87;81.74
18581;DHT22;9420;50.876;7.012;2024-03-02T01:47:54;6.82;81.98
18581;DHT22;9420;50.876;7.012;2024-03-02T01:50:25;6.85;81.99
18581;DHT22;9420;50.876;7.012;2024-03-02T01:52:52;6.89;81.76
18581;DHT22;9420;50.876;7.012;2024-03-02T01:55:20;6.99;81.38
18581;DHT22;9420;50.876;7.012;2024-03-02T01:57:46;7.23;80.48
18581;DHT22;9420;50.876;7.012;2024-03-02T02:00:16;7.27;80.79
18581;DHT22;9420;50.876;7.012;2024-03-02T02:02:43;7.38;80.44
18581;DHT22;9420;50.876;7.012;2024-03-02T02:05:10;7.31;80.57
18581;DHT22;9420;50.876;7.012;2024-03-02T02:07:36;7.34;80.82
18581;DHT22;9420;50.876;7.012;2024-03-02T02:10:04;7.34;80.70
18581;DHT22;9420;50.876;7.012;2024-03-02T02:12:30;7.31;80.60
18581;DHT22;9420;50.876;7.012;2024-03-02T02:14:57;7.34;80.32
18581;DHT22;9420;50.876;7.012;2024-03-02T02:17:25;7.47;80.13
18581;DHT22;9420;50.876;7.012;2024-03-02T02:19:52;7.40;80.29
18581;DHT22;9420;50.876;7.012;2024-03-02T02:22:20;7.32;80.52
18581;DHT22;9420;50.876;7.012;2024-03-02T02:24:47;7.34;80.61
18581;DHT22;9420;50.876;7.012;2024-03-02T02:27:13;7.35;80.49
18581;DHT22;9420;50.876;7.012;2024-03-02T02:29:40;7.43;80.19
18581;DHT22;9420;50.876;7.012;2024-03-02T02:32:07;7.36;80.28
18581;DHT22;9420;50.876;7.012;2024-03-02T02:34:34;7.34;80.63
18581;DHT22;9420;50.876;7.012;2024-03-02T02:37:00;7.31;80.78
18581;DHT22;9420;50.876;7.012;2024-03-02T02:39:29;7.44;80.07
18581;DHT22;9420;50.876;7.012;2024-03-02T02:41:55;7.45;80.27
18581;DHT22;9420;50.876;7.012;2024-03-02T02:44:22;7.48;80.06
18581;DHT22;9420;50.876;7.012;2024-03-02T02:46:49;7.44;80.47
18581;DHT22;9420;50.876;7.012;2024-03-02T02:49:16;7.35;80.44
18581;DHT22;9420;50.876;7.012;2024-03-02T02:51:42;7.34;80.18
18581;DHT22;9420;50.876;7.012;2024-03-02T02:54:09;7.20;81.33
18581;DHT22;9420;50.876;7.012;2024-03-02T02:56:37;7.35;80.67
18581;DHT22;9420;50.876;7.012;2024-03-02T02:59:04;7.41;80.35
18581;DHT22;9420;50.876;7.012;2024-03-02T03:01:30;7.44;80.04
18581;DHT22;9420;50.876;7.012;2024-03-02T03:03:57;7.48;79.99
18581;DHT22;9420;50.876;7.012;2024-03-02T03:06:23;7.48;79.96
18581;DHT22;9420;50.876;7.012;2024-03-02T03:08:50;7.43;80.36
18581;DHT22;9420;50.876;7.012;2024-03-02T03:11:16;7.47;80.19
18581;DHT22;9420;50.876;7.012;2024-03-02T03:13:45;7.54;80.01
18581;DHT22;9420;50.876;7.012;2024-03-02T03:16:11;7.58;79.66
18581;DHT22;9420;50.876;7.012;2024-03-02T03:18:38;7.59;79.23
18581;DHT22;9420;50.876;7.012;2024-03-02T03:21:04;7.64;79.49
18581;DHT22;9420;50.876;7.012;2024-03-02T03:23:31;7.62;79.66
18581;DHT22;9420;50.876;7.012;2024-03-02T03:25:58;7.51;80.09
18581;DHT22;9420;50.876;7.012;2024-03-02T03:28:24;7.55;79.76
18581;DHT22;9420;50.876;7.012;2024-03-02T03:30:52;7.58;79.61
18581;DHT22;9420;50.876;7.012;2024-03-02T03:33:19;7.52;79.72
18581;DHT22;9420;50.876;7.012;2024-03-02T03:35:45;7.44;80.38
18581;DHT22;9420;50.876;7.012;2024-03-02T03:38:13;7.44;80.09
18581;DHT22;9420;50.876;7.012;2024-03-02T03:40:40;7.44;80.35
18581;DHT22;9420;50.876;7.012;2024-03-02T03:43:06;7.45;80.12
18581;DHT22;9420;50.876;7.012;2024-03-02T03:45:33;7.56;79.82
18581;DHT22;9420;50.876;7.012;2024-03-02T03:48:01;7.58;79.49
18581;DHT22;9420;50.876;7.012;2024-03-02T03:50:28;7.51;80.00
18581;DHT22;9420;50.876;7.012;2024-03-02T03:52:55;7.55;79.79
18581;DHT22;9420;50.876;7.012;2024-03-02T03:55:21;7.59;79.46
18581;DHT22;9420;50.876;7.012;2024-03-02T03:57:48;7.55;79.11
18581;DHT22;9420;50.876;7.012;2024-03-02T04:00:15;7.36;80.31
18581;DHT22;9420;50.876;7.012;2024-03-02T04:02:42;7.36;80.09
18581;DHT22;9420;50.876;7.012;2024-03-02T04:05:10;7.38;79.57
18581;DHT22;9420;50.876;7.012;2024-03-02T04:07:37;7.21;80.15
18581;DHT22;9420;50.876;7.012;2024-03-02T04:10:09;6.94;81.28
18581;DHT22;9420;50.876;7.012;2024-03-02T04:12:38;6.90;81.21
18581;DHT22;9420;50.876;7.012;2024-03-02T04:15:05;6.69;82.20
18581;DHT22;9420;50.876;7.012;2024-03-02T04:17:32;6.76;81.89
18581;DHT22;9420;50.876;7.012;2024-03-02T04:20:01;6.69;82.38
18581;DHT22;9420;50.876;7.012;2024-03-02T04:22:32;6.69;81.86
18581;DHT22;9420;50.876;7.012;2024-03-02T04:24:59;6.69;81.97
18581;DHT22;9420;50.876;7.012;2024-03-02T04:27:26;6.73;82.01
18581;DHT22;9420;50.876;7.012;2024-03-02T04:29:52;6.76;82.13
18581;DHT22;9420;50.876;7.012;2024-03-02T04:32:19;6.87;81.44
18581;DHT22;9420;50.876;7.012;2024-03-02T04:34:46;6.85;81.61
18581;DHT22;9420;50.876;7.012;2024-03-02T04:37:12;6.71;81.95
18581;DHT22;9420;50.876;7.012;2024-03-02T04:39:41;6.53;82.44
18581;DHT22;9420;50.876;7.012;2024-03-02T04:42:07;6.56;82.30
18581;DHT22;9420;50.876;7.012;2024-03-02T04:44:34;6.58;82.39
18581;DHT22;9420;50.876;7.012;2024-03-02T04:47:01;6.49;82.46
18581;DHT22;9420;50.876;7.012;2024-03-02T04:49:27;6.46;82.36
18581;DHT22;9420;50.876;7.012;2024-03-02T04:51:54;6.39;82.50
18581;DHT22;9420;50.876;7.012;2024-03-02T04:54:21;6.42;82.34
18581;DHT22;9420;50.876;7.012;2024-03-02T04:56:49;6.32;82.71
18581;DHT22;9420;50.876;7.012;2024-03-02T04:59:16;6.24;82.97
18581;DHT22;9420;50.876;7.012;2024-03-02T05:01:43;6.27;82.89
18581;DHT22;9420;50.876;7.012;2024-03-02T05:04:09;6.31;82.81
18581;DHT22;9420;50.876;7.012;2024-03-02T05:06:37;6.32;82.98
18581;DHT22;9420;50.876;7.012;2024-03-02T05:09:05;6.39;82.64
18581;DHT22;9420;50.876;7.012;2024-03-02T05:11:32;6.44;82.77
18581;DHT22;9420;50.876;7.012;2024-03-02T05:14:22;6.48;82.23
18581;DHT22;9420;50.876;7.012;2024-03-02T05:16:49;6.41;82.69
18581;DHT22;9420;50.876;7.012;2024-03-02T05:19:16;6.34;82.65
18581;DHT22;9420;50.876;7.012;2024-03-02T05:21:43;6.27;83.01
18581;DHT22;9420;50.876;7.012;2024-03-02T05:24:09;6.32;82.65
18581;DHT22;9420;50.876;7.012;2024-03-02T05:26:36;6.24;83.04
18581;DHT22;9420;50.876;7.012;2024-03-02T05:29:03;6.17;83.21
18581;DHT22;9420;50.876;7.012;2024-03-02T05:31:31;6.03;83.51
18581;DHT22;9420;50.876;7.012;2024-03-02T05:33:57;6.10;83.31
18581;DHT22;9420;50.876;7.012;2024-03-02T05:36:24;6.06;83.41
18581;DHT22;9420;50.876;7.012;2024-03-02T05:38:51;6.03;83.26
18581;DHT22;9420;50.876;7.012;2024-03-02T05:41:18;6.11;83.01
18581;DHT22;9420;50.876;7.012;2024-03-02T05:43:44;6.07;83.19
18581;DHT22;9420;50.876;7.012;2024-03-02T05:46:11;5.90;83.47
18581;DHT22;9420;50.876;7.012;2024-03-02T05:48:39;5.97;83.29
18581;DHT22;9420;50.876;7.012;2024-03-02T05:51:06;6.07;82.83
18581;DHT22;9420;50.876;7.012;2024-03-02T05:53:32;6.14;82.88
18581;DHT22;9420;50.876;7.012;2024-03-02T05:55:59;6.21;82.80
18581;DHT22;9420;50.876;7.012;2024-03-02T05:58:26;6.31;82.43
18581;DHT22;9420;50.876;7.012;2024-03-02T06:01:03;6.44;82.46
18581;DHT22;9420;50.876;7.012;2024-03-02T06:03:31;6.49;82.35
18581;DHT22;9420;50.876;7.012;2024-03-02T06:05:59;6.46;82.44
18581;DHT22;9420;50.876;7.012;2024-03-02T06:08:25;6.38;82.56
18581;DHT22;9420;50.876;7.012;2024-03-02T06:10:52;6.34;82.74
18581;DHT22;9420;50.876;7.012;2024-03-02T06:13:19;6.35;82.37
18581;DHT22;9420;50.876;7.012;2024-03-02T06:15:46;6.44;82.36
18581;DHT22;9420;50.876;7.012;2024-03-02T06:18:12;6.37;82.67
18581;DHT22;9420;50.876;7.012;2024-03-02T06:20:39;6.48;82.32
18581;DHT22;9420;50.876;7.012;2024-03-02T06:23:07;6.50;82.44
18581;DHT22;9420;50.876;7.012;2024-03-02T06:25:34;6.49;82.29
18581;DHT22;9420;50.876;7.012;2024-03-02T06:28:00;6.49;82.55
18581;DHT22;9420;50.876;7.012;2024-03-02T06:30:27;6.48;82.54
18581;DHT22;9420;50.876;7.012;2024-03-02T06:32:54;6.46;82.55
18581;DHT22;9420;50.876;7.012;2024-03-02T06:35:21;6.56;82.13
18581;DHT22;9420;50.876;7.012;2024-03-02T06:37:48;6.50;82.30
18581;DHT22;9420;50.876;7.012;2024-03-02T06:40:16;6.58;82.31
18581;DHT22;9420;50.876;7.012;2024-03-02T06:42:43;6.56;82.38
18581;DHT22;9420;50.876;7.012;2024-03-02T06:45:12;6.62;82.31
18581;DHT22;9420;50.876;7.012;2024-03-02T06:47:38;6.71;81.89
18581;DHT22;9420;50.876;7.012;2024-03-02T06:50:05;6.71;82.13
18581;DHT22;9420;50.876;7.012;2024-03-02T06:52:32;6.64;82.49
18581;DHT22;9420;50.876;7.012;2024-03-02T06:54:59;6.68;82.25
18581;DHT22;9420;50.876;7.012;2024-03-02T06:57:27;6.66;82.22
18581;DHT22;9420;50.876;7.012;2024-03-02T06:59:54;6.76;81.93
18581;DHT22;9420;50.876;7.012;2024-03-02T07:02:23;6.90;81.67
18581;DHT22;9420;50.876;7.012;2024-03-02T07:04:52;6.97;81.55
18581;DHT22;9420;50.876;7.012;2024-03-02T07:07:18;6.96;81.32
18581;DHT22;9420;50.876;7.012;2024-03-02T07:09:46;6.92;81.80
18581;DHT22;9420;50.876;7.012;2024-03-02T07:12:12;6.97;81.58
18581;DHT22;9420;50.876;7.012;2024-03-02T07:14:40;7.03;81.54
18581;DHT22;9420;50.876;7.012;2024-03-02T07:17:24;7.13;81.11
18581;DHT22;9420;50.876;7.012;2024-03-02T07:19:51;7.14;81.41
18581;DHT22;9420;50.876;7.012;2024-03-02T07:22:18;7.18;81.39
18581;DHT22;9420;50.876;7.012;2024-03-02T07:24:44;7.28;80.58
18581;DHT22;9420;50.876;7.012;2024-03-02T07:27:11;7.35;80.68
18581;DHT22;9420;50.876;7.012;2024-03-02T07:29:39;7.40;80.90
18581;DHT22;9420;50.876;7.012;2024-03-02T07:32:08;7.32;81.68
18581;DHT22;9420;50.876;7.012;2024-03-02T07:34:34;7.41;81.17
18581;DHT22;9420;50.876;7.012;2024-03-02T07:37:02;7.58;80.90
18581;DHT22;9420;50.876;7.012;2024-03-02T07:39:29;7.68;80.15
18581;DHT22;9420;50.876;7.012;2024-03-02T07:41:56;7.72;79.91
18581;DHT22;9420;50.876;7.012;2024-03-02T07:44:22;7.79;80.57
18581;DHT22;9420;50.876;7.012;2024-03-02T07:46:49;7.83;80.49
18581;DHT22;9420;50.876;7.012;2024-03-02T07:49:18;7.89;79.93
18581;DHT22;9420;50.876;7.012;2024-03-02T07:51:44;7.92;80.44
18581;DHT22;9420;50.876;7.012;2024-03-02T07:54:11;7.96;80.14
18581;DHT22;9420;50.876;7.012;2024-03-02T07:56:38;8.10;79.93
18581;DHT22;9420;50.876;7.012;2024-03-02T07:59:04;8.03;79.59
18581;DHT22;9420;50.876;7.012;2024-03-02T08:01:32;7.96;79.96
18581;DHT22;9420;50.876;7.012;2024-03-02T08:04:00;8.07;79.19
18581;DHT22;9420;50.876;7.012;2024-03-02T08:06:28;8.17;79.65
18581;DHT22;9420;50.876;7.012;2024-03-02T08:08:55;8.24;79.99
18581;DHT22;9420;50.876;7.012;2024-03-02T08:11:21;8.38;79.57
18581;DHT22;9420;50.876;7.012;2024-03-02T08:13:48;8.57;78.71
18581;DHT22;9420;50.876;7.012;2024-03-02T08:16:15;8.79;78.01
18581;DHT22;9420;50.876;7.012;2024-03-02T08:18:45;9.00;77.60
18581;DHT22;9420;50.876;7.012;2024-03-02T08:21:12;9.23;76.85
18581;DHT22;9420;50.876;7.012;2024-03-02T08:23:40;9.44;76.42
18581;DHT22;9420;50.876;7.012;2024-03-02T08:26:07;9.39;76.23
18581;DHT22;9420;50.876;7.012;2024-03-02T08:28:34;9.58;75.77
18581;DHT22;9420;50.876;7.012;2024-03-02T08:31:02;9.41;76.52
18581;DHT22;9420;50.876;7.012;2024-03-02T08:33:29;9.40;75.95
18581;DHT22;9420;50.876;7.012;2024-03-02T08:35:56;9.24;76.91
18581;DHT22;9420;50.876;7.012;2024-03-02T08:38:24;9.27;76.30
18581;DHT22;9420;50.876;7.012;2024-03-02T08:40:52;9.20;76.54
18581;DHT22;9420;50.876;7.012;2024-03-02T08:43:19;9.26;76.80
18581;DHT22;9420;50.876;7.012;2024-03-02T08:45:48;9.36;76.82
18581;DHT22;9420;50.876;7.012;2024-03-02T08:48:16;9.37;77.33
18581;DHT22;9420;50.876;7.012;2024-03-02T08:50:43;9.60;76.08
18581;DHT22;9420;50.876;7.012;2024-03-02T08:53:09;9.57;77.74
18581;DHT22;9420;50.876;7.012;2024-03-02T08:55:36;9.73;76.42
18581;DHT22;9420;50.876;7.012;2024-03-02T08:58:04;9.88;75.79
18581;DHT22;9420;50.876;7.012;2024-03-02T09:00:31;10.05;75.29
18581;DHT22;9420;50.876;7.012;2024-03-02T09:02:58;9.98;75.80
18581;DHT22;9420;50.876;7.012;2024-03-02T09:05:24;10.03;75.20
18581;DHT22;9420;50.876;7.012;2024-03-02T09:07:51;10.09;75.04
18581;DHT22;9420;50.876;7.012;2024-03-02T09:10:17;10.10;74.91
18581;DHT22;9420;50.876;7.012;2024-03-02T09:12:44;10.22;74.53
18581;DHT22;9420;50.876;7.012;2024-03-02T09:15:12;10.33;75.39
18581;DHT22;9420;50.876;7.012;2024-03-02T09:17:39;10.33;74.77
18581;DHT22;9420;50.876;7.012;2024-03-02T09:20:06;10.43;74.14
18581;DHT22;9420;50.876;7.012;2024-03-02T09:22:33;10.42;73.56
18581;DHT22;9420;50.876;7.012;2024-03-02T09:25:00;10.43;74.50
18581;DHT22;9420;50.876;7.012;2024-03-02T09:27:26;10.53;73.13
18581;DHT22;9420;50.876;7.012;2024-03-02T09:29:53;10.66;72.72
18581;DHT22;9420;50.876;7.012;2024-03-02T09:32:21;10.70;73.20
18581;DHT22;9420;50.876;7.012;2024-03-02T09:34:48;10.77;72.57
18581;DHT22;9420;50.876;7.012;2024-03-02T09:37:15;10.81;72.64
18581;DHT22;9420;50.876;7.012;2024-03-02T09:39:43;10.94;72.59
18581;DHT22;9420;50.876;7.012;2024-03-02T09:42:11;11.18;71.44
18581;DHT22;9420;50.876;7.012;2024-03-02T09:44:39;11.29;72.60
18581;DHT22;9420;50.876;7.012;2024-03-02T09:47:07;11.43;70.45
18581;DHT22;9420;50.876;7.012;2024-03-02T09:49:35;11.61;70.89
18581;DHT22;9420;50.876;7.012;2024-03-02T09:52:03;11.47;72.19
18581;DHT22;9420;50.876;7.012;2024-03-02T09:54:31;11.35;70.96
18581;DHT22;9420;50.876;7.012;2024-03-02T09:56:57;11.36;70.70
18581;DHT22;9420;50.876;7.012;2024-03-02T09:59:26;11.36;70.75
18581;DHT22;9420;50.876;7.012;2024-03-02T10:01:58;11.32;70.73
18581;DHT22;9420;50.876;7.012;2024-03-02T10:04:26;11.39;72.29
18581;DHT22;9420;50.876;7.012;2024-03-02T10:07:09;11.36;71.85
18581;DHT22;9420;50.876;7.012;2024-03-02T10:09:37;11.47;71.80
18581;DHT22;9420;50.876;7.012;2024-03-02T10:12:04;11.74;70.40
18581;DHT22;9420;50.876;7.012;2024-03-02T10:14:31;11.77;71.19
18581;DHT22;9420;50.876;7.012;2024-03-02T10:17:02;11.80;70.90
18581;DHT22;9420;50.876;7.012;2024-03-02T10:19:28;11.90;70.41
18581;DHT22;9420;50.876;7.012;2024-03-02T10:21:59;11.94;69.96
18581;DHT22;9420;50.876;7.012;2024-03-02T10:24:27;12.24;70.50
18581;DHT22;9420;50.876;7.012;2024-03-02T10:26:53;12.28;68.89
18581;DHT22;9420;50.876;7.012;2024-03-02T10:29:22;12.39;69.34
18581;DHT22;9420;50.876;7.012;2024-03-02T10:31:48;12.46;69.82
18581;DHT22;9420;50.876;7.012;2024-03-02T10:34:15;12.31;69.30
18581;DHT22;9420;50.876;7.012;2024-03-02T10:36:43;12.44;68.95
18581;DHT22;9420;50.876;7.012;2024-03-02T10:39:12;12.65;69.74
18581;DHT22;9420;50.876;7.012;2024-03-02T10:41:41;12.73;68.37
18581;DHT22;9420;50.876;7.012;2024-03-02T10:44:08;12.82;67.06
18581;DHT22;9420;50.876;7.012;2024-03-02T10:46:37;12.78;66.62
18581;DHT22;9420;50.876;7.012;2024-03-02T10:49:04;13.11;66.20
18581;DHT22;9420;50.876;7.012;2024-03-02T10:51:33;13.36;65.94
18581;DHT22;9420;50.876;7.012;2024-03-02T10:54:02;13.16;65.57
18581;DHT22;9420;50.876;7.012;2024-03-02T10:56:30;13.23;66.31
18581;DHT22;9420;50.876;7.012;2024-03-02T10:59:02;13.48;66.90
18581;DHT22;9420;50.876;7.012;2024-03-02T11:01:31;13.79;65.17
18581;DHT22;9420;50.876;7.012;2024-03-02T11:04:02;14.05;65.19
18581;DHT22;9420;50.876;7.012;2024-03-02T11:06:30;14.06;65.11
18581;DHT22;9420;50.876;7.012;2024-03-02T11:09:05;14.26;64.51
18581;DHT22;9420;50.876;7.012;2024-03-02T11:11:37;14.41;65.55
18581;DHT22;9420;50.876;7.012;2024-03-02T11:14:07;14.30;63.84
18581;DHT22;9420;50.876;7.012;2024-03-02T11:16:35;14.54;63.76
18581;DHT22;9420;50.876;7.012;2024-03-02T11:19:04;14.60;62.89
18581;DHT22;9420;50.876;7.012;2024-03-02T11:21:33;14.92;63.22
18581;DHT22;9420;50.876;7.012;2024-03-02T11:24:00;14.99;62.88
18581;DHT22;9420;50.876;7.012;2024-03-02T11:26:28;15.20;61.93
18581;DHT22;9420;50.876;7.012;2024-03-02T11:28:54;15.13;61.94
18581;DHT22;9420;50.876;7.012;2024-03-02T11:31:57;15.76;59.85
18581;DHT22;9420;50.876;7.012;2024-03-02T11:34:28;16.63;58.14
18581;DHT22;9420;50.876;7.012;2024-03-02T11:36:56;16.91;56.43
18581;DHT22;9420;50.876;7.012;2024-03-02T11:39:23;17.83;54.49
18581;DHT22;9420;50.876;7.012;2024-03-02T11:41:49;19.36;52.74
18581;DHT22;9420;50.876;7.012;2024-03-02T11:44:16;18.76;52.34
18581;DHT22;9420;50.876;7.012;2024-03-02T11:46:47;18.81;52.87
18581;DHT22;9420;50.876;7.012;2024-03-02T11:49:36;18.87;53.08
18581;DHT22;9420;50.876;7.012;2024-03-02T11:52:04;19.70;50.87
18581;DHT22;9420;50.876;7.012;2024-03-02T11:54:32;20.53;50.35
18581;DHT22;9420;50.876;7.012;2024-03-02T11:57:01;20.23;49.72
18581;DHT22;9420;50.876;7.012;2024-03-02T11:59:28;17.23;55.74
18581;DHT22;9420;50.876;7.012;2024-03-02T12:01:57;17.03;56.29
18581;DHT22;9420;50.876;7.012;2024-03-02T12:04:25;15.87;59.28
18581;DHT22;9420;50.876;7.012;2024-03-02T12:06:54;14.88;61.34
18581;DHT22;9420;50.876;7.012;2024-03-02T12:09:22;15.23;61.20
18581;DHT22;9420;50.876;7.012;2024-03-02T12:12:01;16.11;58.57
18581;DHT22;9420;50.876;7.012;2024-03-02T12:14:28;16.94;57.84
18581;DHT22;9420;50.876;7.012;2024-03-02T12:16:56;18.72;52.75
18581;DHT22;9420;50.876;7.012;2024-03-02T12:19:24;20.37;49.28
18581;DHT22;9420;50.876;7.012;2024-03-02T12:21:50;20.40;49.96
18581;DHT22;9420;50.876;7.012;2024-03-02T12:24:17;20.33;49.91
18581;DHT22;9420;50.876;7.012;2024-03-02T12:26:44;21.21;48.42
18581;DHT22;9420;50.876;7.012;2024-03-02T12:29:12;20.59;50.33
18581;DHT22;9420;50.876;7.012;2024-03-02T12:31:39;19.82;51.57
18581;DHT22;9420;50.876;7.012;2024-03-02T12:34:07;21.58;49.04
18581;DHT22;9420;50.876;7.012;2024-03-02T12:36:37;21.75;46.04
18581;DHT22;9420;50.876;7.012;2024-03-02T12:39:04;22.16;45.62
18581;DHT22;9420;50.876;7.012;2024-03-02T12:41:30;21.53;47.56
18581;DHT22;9420;50.876;7.012;2024-03-02T12:43:57;20.67;48.28
18581;DHT22;9420;50.876;7.012;2024-03-02T12:46:24;19.82;50.00
18581;DHT22;9420;50.876;7.012;2024-03-02T12:48:51;19.92;51.44
18581;DHT22;9420;50.876;7.012;2024-03-02T12:51:19;20.22;49.45
18581;DHT22;9420;50.876;7.012;2024-03-02T12:53:46;20.44;48.87
18581;DHT22;9420;50.876;7.012;2024-03-02T12:56:18;23.17;44.67
18581;DHT22;9420;50.876;7.012;2024-03-02T12:58:45;23.30;43.82
18581;DHT22;9420;50.876;7.012;2024-03-02T13:01:14;23.33;43.51
18581;DHT22;9420;50.876;7.012;2024-03-02T13:03:44;23.44;43.36
18581;DHT22;9420;50.876;7.012;2024-03-02T13:06:10;23.62;43.93
18581;DHT22;9420;50.876;7.012;2024-03-02T13:08:38;22.13;46.24
18581;DHT22;9420;50.876;7.012;2024-03-02T13:11:05;21.14;47.42
18581;DHT22;9420;50.876;7.012;2024-03-02T13:13:32;21.08;47.41
18581;DHT22;9420;50.876;7.012;2024-03-02T13:16:00;19.96;50.94
18581;DHT22;9420;50.876;7.012;2024-03-02T13:18:28;19.89;50.27
18581;DHT22;9420;50.876;7.012;2024-03-02T13:20:56;19.19;51.79
18581;DHT22;9420;50.876;7.012;2024-03-02T13:23:23;17.69;54.19
18581;DHT22;9420;50.876;7.012;2024-03-02T13:25:51;18.62;52.22
18581;DHT22;9420;50.876;7.012;2024-03-02T13:28:17;19.30;53.33
18581;DHT22;9420;50.876;7.012;2024-03-02T13:30:44;19.53;50.35
18581;DHT22;9420;50.876;7.012;2024-03-02T13:33:11;17.66;55.14
18581;DHT22;9420;50.876;7.012;2024-03-02T13:35:37;16.84;56.59
18581;DHT22;9420;50.876;7.012;2024-03-02T13:38:04;16.59;56.32
18581;DHT22;9420;50.876;7.012;2024-03-02T13:40:31;17.58;55.32
18581;DHT22;9420;50.876;7.012;2024-03-02T13:43:02;17.92;54.81
18581;DHT22;9420;50.876;7.012;2024-03-02T13:45:29;18.31;53.16
18581;DHT22;9420;50.876;7.012;2024-03-02T13:47:55;18.98;51.62
18581;DHT22;9420;50.876;7.012;2024-03-02T13:50:22;20.02;50.26
18581;DHT22;9420;50.876;7.012;2024-03-02T13:52:48;19.65;51.53
18581;DHT22;9420;50.876;7.012;2024-03-02T13:55:15;18.41;53.46
18581;DHT22;9420;50.876;7.012;2024-03-02T13:57:42;18.61;54.58
18581;DHT22;9420;50.876;7.012;2024-03-02T14:00:11;19.56;52.48
18581;DHT22;9420;50.876;7.012;2024-03-02T14:02:38;18.73;52.05
18581;DHT22;9420;50.876;7.012;2024-03-02T14:05:05;20.54;49.90
18581;DHT22;9420;50.876;7.012;2024-03-02T14:07:37;20.64;49.81
18581;DHT22;9420;50.876;7.012;2024-03-02T14:10:04;20.08;50.07
18581;DHT22;9420;50.876;7.012;2024-03-02T14:12:31;18.79;52.78
18581;DHT22;9420;50.876;7.012;2024-03-02T14:14:57;17.79;54.35
18581;DHT22;9420;50.876;7.012;2024-03-02T14:17:25;17.59;55.61
18581;DHT22;9420;50.876;7.012;2024-03-02T14:19:52;18.18;53.55
18581;DHT22;9420;50.876;7.012;2024-03-02T14:22:19;17.68;55.44
18581;DHT22;9420;50.876;7.012;2024-03-02T14:24:46;16.86;56.06
18581;DHT22;9420;50.876;7.012;2024-03-02T14:27:13;16.41;58.11
18581;DHT22;9420;50.876;7.012;2024-03-02T14:29:40;15.80;59.38
18581;DHT22;9420;50.876;7.012;2024-03-02T14:32:06;15.83;57.96
18581;DHT22;9420;50.876;7.012;2024-03-02T14:34:34;15.53;58.89
18581;DHT22;9420;50.876;7.012;2024-03-02T14:37:01;15.32;60.24
18581;DHT22;9420;50.876;7.012;2024-03-02T14:39:28;15.20;59.51
18581;DHT22;9420;50.876;7.012;2024-03-02T14:41:55;15.06;60.83
18581;DHT22;9420;50.876;7.012;2024-03-02T14:44:21;15.01;60.89
18581;DHT22;9420;50.876;7.012;2024-03-02T14:46:48;14.85;60.70
18581;DHT22;9420;50.876;7.012;2024-03-02T14:49:15;14.53;62.68
18581;DHT22;9420;50.876;7.012;2024-03-02T14:51:43;14.77;61.54
18581;DHT22;9420;50.876;7.012;2024-03-02T14:54:10;14.70;61.73
18581;DHT22;9420;50.876;7.012;2024-03-02T14:56:37;14.75;60.31
18581;DHT22;9420;50.876;7.012;2024-03-02T14:59:03;14.57;61.48
18581;DHT22;9420;50.876;7.012;2024-03-02T15:01:30;14.13;63.09
18581;DHT22;9420;50.876;7.012;2024-03-02T15:03:56;14.41;61.34
18581;DHT22;9420;50.876;7.012;2024-03-02T15:06:23;14.43;61.41
18581;DHT22;9420;50.876;7.012;2024-03-02T15:08:51;14.27;62.48
18581;DHT22;9420;50.876;7.012;2024-03-02T15:11:20;14.26;61.03
18581;DHT22;9420;50.876;7.012;2024-03-02T15:13:47;14.82;59.88
18581;DHT22;9420;50.876;7.012;2024-03-02T15:16:14;14.47;61.53
18581;DHT22;9420;50.876;7.012;2024-03-02T15:18:40;14.75;60.93
18581;DHT22;9420;50.876;7.012;2024-03-02T15:21:07;14.95;60.14
18581;DHT22;9420;50.876;7.012;2024-03-02T15:23:33;14.77;60.02
18581;DHT22;9420;50.876;7.012;2024-03-02T15:26:02;14.68;60.66
18581;DHT22;9420;50.876;7.012;2024-03-02T15:28:28;14.78;60.09
18581;DHT22;9420;50.876;7.012;2024-03-02T15:30:55;14.50;60.62
18581;DHT22;9420;50.876;7.012;2024-03-02T15:33:22;14.34;61.82
18581;DHT22;9420;50.876;7.012;2024-03-02T15:35:50;14.19;62.31
18581;DHT22;9420;50.876;7.012;2024-03-02T15:38:17;14.43;61.48
18581;DHT22;9420;50.876;7.012;2024-03-02T15:40:44;14.59;62.19
18581;DHT22;9420;50.876;7.012;2024-03-02T15:43:12;16.05;56.90
18581;DHT22;9420;50.876;7.012;2024-03-02T15:45:39;15.46;57.95
18581;DHT22;9420;50.876;7.012;2024-03-02T15:48:06;14.61;60.03
18581;DHT22;9420;50.876;7.012;2024-03-02T15:50:32;14.61;61.02
18581;DHT22;9420;50.876;7.012;2024-03-02T15:53:01;14.40;61.64
18581;DHT22;9420;50.876;7.012;2024-03-02T15:55:31;14.20;62.36
18581;DHT22;9420;50.876;7.012;2024-03-02T15:57:57;14.01;63.15